Airfield :
LOGIN :

Register | Disclaimer

   EN    FR    IT 

 










Legend :    VFR   Marginal VFR   IFR   Intensive IFR   Very Intensive IFR
Visi :
Ceiling :
>= 8 km
>= 3000ft
5 to 8 km
1000 to 3000 ft
1500m to 5 km
500 to 1000 ft
800 to 1500m
200 to 500 ft
< 800m
< 200 ft
Symbols :   Thunderstorms  Fog  Heavy snow  Heavy precipitations  Wind > 20 kt
SIGMETs :     Misc.  Thunderstorms  Icing  Turbulence  Mountain Waves  Volcanic Ashes






- Airport Elevation : 17 ft
- IATA code : GRQ


EHGG - Groningen Eelde

CURRENT METAR :
  • 291325Z AUTO 14008KT 060V190 9999 NSC 26/13 Q1013 NOSIG

EXPIRED METARs :
  • 291255Z AUTO 11009KT 080V160 9999 NCD 26/13 Q1013 NOSIG
  • 291225Z AUTO 12008KT 070V170 9999 NSC 27/12 Q1013 NOSIG
  • 291155Z AUTO 14010KT 070V190 9999 NCD 26/11 Q1014 NOSIG
  • 291125Z AUTO 13007KT 070V170 9999 NSC 26/11 Q1014 NOSIG
  • 291055Z AUTO 11006KT 060V150 9999 NSC 25/12 Q1014 NOSIG

TAF TAF EHGG
Valid from the 29 at 12:00 until the 30 at 18:00 UTC


291117Z 2912/3018 14005KT CAVOK
PROB30
TEMPO 3014/3018 VRB15G25KT 4000 SHRA TSRA SCT060CB



MET'MAP, your aeronautical weather chart ! - Copyright ORBIFLY December 2007 - Disclaimer

ORBIFLY MET'MAP TEAM :

Programming & Development : Alexandra Zaïnal
Original concept : Baudouin d'Aumeries
Technical & hardware support : Manuel Goepfert
Assistance : Marc-Olivier Méhu




SOURCES & CREDITS :

   NOAA